This is the latest recevied weather packets stored in our database for station/object K5EAA-13. If no packets are shown the sender has not sent any weather packets the latest 10 day(s).
| Time | Temp. | Humidity | Pressure | Rain* | Wind** | Luminosity | Snow |
|---|---|---|---|---|---|---|---|
| 1787595433 | 40° C | 27% | 1013.5 hPa | 0 mm | - | 756 W/m² | - |
| 1787595129 | 40° C | 27% | 1013.5 hPa | 0 mm | - | 747 W/m² | - |
| 1787594823 | 38.89° C | 29% | 1013.6 hPa | 0 mm | - | 851 W/m² | - |
| 1787594522 | 40.56° C | 27% | 1013.7 hPa | 0 mm | - | 324 W/m² | - |
| 1787594221 | 41.67° C | 25% | 1013.7 hPa | 0 mm | - | 782 W/m² | - |
| 1787593916 | 41.11° C | 27% | 1013.7 hPa | 0 mm | - | 885 W/m² | - |
| 1787593611 | 40.56° C | 27% | 1013.6 hPa | 0 mm | - | 854 W/m² | - |
| 1787593307 | 41.11° C | 28% | 1013.8 hPa | 0 mm | - | 840 W/m² | - |
| 1787593002 | 40.56° C | 29% | 1014.1 hPa | 0 mm | - | 827 W/m² | - |
| 1787592696 | 39.44° C | 29% | 1014.3 hPa | 0 mm | - | 787 W/m² | - |
| 1787592396 | 38.89° C | 30% | 1014.5 hPa | 0 mm | - | 655 W/m² | - |
| 1787592091 | 38.89° C | 31% | 1014.3 hPa | 0 mm | - | 481 W/m² | - |
| 1787591787 | 39.44° C | 31% | 1014.3 hPa | 0 mm | - | 726 W/m² | - |
| 1787591482 | 40° C | 29% | 1014.1 hPa | 0 mm | - | 446 W/m² | - |
| 1787591178 | 40° C | 29% | 1014.2 hPa | 0 mm | - | 852 W/m² | - |
| 1787590875 | 38.89° C | 29% | 1014.4 hPa | 0 mm | - | 752 W/m² | - |
| 1787590569 | 39.44° C | 29% | 1014.2 hPa | 0 mm | - | 707 W/m² | - |
| 1787590263 | 38.89° C | 32% | 1014.3 hPa | 0 mm | - | 685 W/m² | - |
| 1787589959 | 37.78° C | 31% | 1014.3 hPa | 0 mm | - | 672 W/m² | - |
| 1787589655 | 38.33° C | 30% | 1014.3 hPa | 0 mm | - | 659 W/m² | - |
| 1787589355 | 37.78° C | 32% | 1014.4 hPa | 0 mm | - | 652 W/m² | - |
| 1787589046 | 37.22° C | 31% | 1014.4 hPa | 0 mm | - | 640 W/m² | - |
| 1787588746 | 37.22° C | 32% | 1014.4 hPa | 0 mm | - | 632 W/m² | - |
| 1787588443 | 37.22° C | 31% | 1014.4 hPa | 0 mm | - | 621 W/m² | - |
| 1787588142 | 36.67° C | 32% | 1014.4 hPa | 0 mm | - | 614 W/m² | - |
* Rain latest hour (hover to see other rain measurements)
** Current wind speed in m/s (hover to see current wind gust speed)